sensor_id;sensor_type;location;lat;lon;timestamp;P1;durP1;ratioP1;P2;durP2;ratioP2
11839;SDS011;5979;50.800;4.904;2022-10-04T00:01:26;9.43;;;8.52;;
11839;SDS011;5979;50.800;4.904;2022-10-04T00:04:04;8.20;;;7.50;;
11839;SDS011;5979;50.800;4.904;2022-10-04T00:06:42;9.70;;;8.80;;
11839;SDS011;5979;50.800;4.904;2022-10-04T00:09:21;8.90;;;8.07;;
11839;SDS011;5979;50.800;4.904;2022-10-04T00:11:50;9.95;;;8.77;;
11839;SDS011;5979;50.800;4.904;2022-10-04T00:14:21;8.07;;;7.38;;
11839;SDS011;5979;50.800;4.904;2022-10-04T00:16:52;10.45;;;9.43;;
11839;SDS011;5979;50.800;4.904;2022-10-04T00:24:23;9.18;;;8.25;;
11839;SDS011;5979;50.800;4.904;2022-10-04T00:27:09;11.40;;;8.32;;
11839;SDS011;5979;50.800;4.904;2022-10-04T00:29:43;9.25;;;8.32;;
11839;SDS011;5979;50.800;4.904;2022-10-04T00:38:00;8.73;;;7.78;;
11839;SDS011;5979;50.800;4.904;2022-10-04T00:40:34;7.60;;;6.65;;
11839;SDS011;5979;50.800;4.904;2022-10-04T00:43:14;9.93;;;8.20;;
11839;SDS011;5979;50.800;4.904;2022-10-04T00:45:43;10.52;;;8.43;;
11839;SDS011;5979;50.800;4.904;2022-10-04T00:48:19;9.15;;;8.20;;
11839;SDS011;5979;50.800;4.904;2022-10-04T00:59:34;8.95;;;7.80;;
11839;SDS011;5979;50.800;4.904;2022-10-04T01:02:13;8.45;;;7.57;;
11839;SDS011;5979;50.800;4.904;2022-10-04T01:04:53;9.70;;;7.47;;
11839;SDS011;5979;50.800;4.904;2022-10-04T01:07:33;9.68;;;7.13;;
11839;SDS011;5979;50.800;4.904;2022-10-04T01:18:15;7.80;;;7.13;;
11839;SDS011;5979;50.800;4.904;2022-10-04T01:20:59;7.63;;;6.40;;
11839;SDS011;5979;50.800;4.904;2022-10-04T01:26:51;7.63;;;6.93;;
11839;SDS011;5979;50.800;4.904;2022-10-04T01:31:26;8.63;;;7.70;;
11839;SDS011;5979;50.800;4.904;2022-10-04T01:33:53;7.47;;;6.57;;
11839;SDS011;5979;50.800;4.904;2022-10-04T01:36:19;8.52;;;7.55;;
11839;SDS011;5979;50.800;4.904;2022-10-04T01:38:46;7.85;;;7.25;;
11839;SDS011;5979;50.800;4.904;2022-10-04T01:41:13;10.70;;;7.53;;
11839;SDS011;5979;50.800;4.904;2022-10-04T01:43:42;7.55;;;6.85;;
11839;SDS011;5979;50.800;4.904;2022-10-04T01:46:28;7.40;;;6.70;;
11839;SDS011;5979;50.800;4.904;2022-10-04T01:49:02;7.80;;;6.53;;
11839;SDS011;5979;50.800;4.904;2022-10-04T01:51:32;9.93;;;6.50;;
11839;SDS011;5979;50.800;4.904;2022-10-04T01:54:34;7.25;;;6.50;;
11839;SDS011;5979;50.800;4.904;2022-10-04T01:57:05;7.47;;;6.78;;
11839;SDS011;5979;50.800;4.904;2022-10-04T02:00:17;6.90;;;6.30;;
11839;SDS011;5979;50.800;4.904;2022-10-04T02:04:59;7.72;;;6.88;;
11839;SDS011;5979;50.800;4.904;2022-10-04T02:07:28;8.63;;;7.25;;
11839;SDS011;5979;50.800;4.904;2022-10-04T02:09:58;8.13;;;7.15;;
11839;SDS011;5979;50.800;4.904;2022-10-04T02:12:27;7.18;;;6.55;;
11839;SDS011;5979;50.800;4.904;2022-10-04T02:14:55;7.25;;;6.65;;
11839;SDS011;5979;50.800;4.904;2022-10-04T02:17:28;7.30;;;6.60;;
11839;SDS011;5979;50.800;4.904;2022-10-04T02:19:56;6.68;;;6.07;;
11839;SDS011;5979;50.800;4.904;2022-10-04T02:22:23;8.15;;;7.00;;
11839;SDS011;5979;50.800;4.904;2022-10-04T02:24:51;7.72;;;6.82;;
11839;SDS011;5979;50.800;4.904;2022-10-04T02:27:37;7.10;;;6.13;;
11839;SDS011;5979;50.800;4.904;2022-10-04T02:30:04;6.35;;;5.78;;
11839;SDS011;5979;50.800;4.904;2022-10-04T02:32:32;6.97;;;6.32;;
11839;SDS011;5979;50.800;4.904;2022-10-04T02:35:17;7.70;;;6.75;;
11839;SDS011;5979;50.800;4.904;2022-10-04T02:37:44;7.07;;;6.38;;
11839;SDS011;5979;50.800;4.904;2022-10-04T02:40:18;6.43;;;5.93;;
11839;SDS011;5979;50.800;4.904;2022-10-04T02:43:33;7.97;;;6.03;;
11839;SDS011;5979;50.800;4.904;2022-10-04T02:45:56;6.60;;;6.05;;
11839;SDS011;5979;50.800;4.904;2022-10-04T02:51:52;13.27;;;6.00;;
11839;SDS011;5979;50.800;4.904;2022-10-04T02:56:58;6.18;;;5.68;;
11839;SDS011;5979;50.800;4.904;2022-10-04T02:59:25;5.60;;;5.10;;
11839;SDS011;5979;50.800;4.904;2022-10-04T03:04:23;5.88;;;5.38;;
11839;SDS011;5979;50.800;4.904;2022-10-04T03:06:52;6.72;;;5.57;;
11839;SDS011;5979;50.800;4.904;2022-10-04T03:09:20;6.10;;;4.57;;
11839;SDS011;5979;50.800;4.904;2022-10-04T03:11:47;5.82;;;5.25;;
11839;SDS011;5979;50.800;4.904;2022-10-04T03:14:17;5.55;;;5.03;;
11839;SDS011;5979;50.800;4.904;2022-10-04T03:16:47;5.10;;;4.70;;
11839;SDS011;5979;50.800;4.904;2022-10-04T03:19:18;5.65;;;4.78;;
11839;SDS011;5979;50.800;4.904;2022-10-04T03:21:46;4.85;;;4.45;;
11839;SDS011;5979;50.800;4.904;2022-10-04T03:24:19;4.45;;;4.15;;
11839;SDS011;5979;50.800;4.904;2022-10-04T03:26:49;5.72;;;4.57;;
11839;SDS011;5979;50.800;4.904;2022-10-04T03:29:21;6.35;;;4.68;;
11839;SDS011;5979;50.800;4.904;2022-10-04T03:31:49;6.13;;;4.68;;
11839;SDS011;5979;50.800;4.904;2022-10-04T03:34:20;4.93;;;3.97;;
11839;SDS011;5979;50.800;4.904;2022-10-04T03:36:50;4.75;;;4.18;;
11839;SDS011;5979;50.800;4.904;2022-10-04T03:39:30;4.13;;;3.55;;
11839;SDS011;5979;50.800;4.904;2022-10-04T03:42:00;5.57;;;3.70;;
11839;SDS011;5979;50.800;4.904;2022-10-04T03:44:29;5.13;;;3.95;;
11839;SDS011;5979;50.800;4.904;2022-10-04T03:46:56;4.68;;;4.28;;
11839;SDS011;5979;50.800;4.904;2022-10-04T03:49:24;5.80;;;4.00;;
11839;SDS011;5979;50.800;4.904;2022-10-04T03:51:57;4.90;;;4.40;;
11839;SDS011;5979;50.800;4.904;2022-10-04T03:54:25;4.82;;;4.32;;
11839;SDS011;5979;50.800;4.904;2022-10-04T03:56:52;5.43;;;4.35;;
11839;SDS011;5979;50.800;4.904;2022-10-04T03:59:19;4.75;;;3.90;;
11839;SDS011;5979;50.800;4.904;2022-10-04T04:01:48;6.43;;;4.32;;
11839;SDS011;5979;50.800;4.904;2022-10-04T04:04:41;5.05;;;4.20;;
11839;SDS011;5979;50.800;4.904;2022-10-04T04:07:24;4.72;;;3.70;;
11839;SDS011;5979;50.800;4.904;2022-10-04T04:13:19;7.88;;;4.35;;
11839;SDS011;5979;50.800;4.904;2022-10-04T04:15:35;7.13;;;4.13;;
11839;SDS011;5979;50.800;4.904;2022-10-04T04:18:03;4.60;;;3.97;;
11839;SDS011;5979;50.800;4.904;2022-10-04T04:20:33;4.57;;;4.18;;
11839;SDS011;5979;50.800;4.904;2022-10-04T04:23:02;4.65;;;4.18;;
11839;SDS011;5979;50.800;4.904;2022-10-04T04:25:37;4.03;;;3.72;;
11839;SDS011;5979;50.800;4.904;2022-10-04T04:30:57;3.80;;;3.47;;
11839;SDS011;5979;50.800;4.904;2022-10-04T04:33:31;5.60;;;3.67;;
11839;SDS011;5979;50.800;4.904;2022-10-04T04:36:09;4.85;;;4.25;;
11839;SDS011;5979;50.800;4.904;2022-10-04T04:38:36;5.13;;;3.78;;
11839;SDS011;5979;50.800;4.904;2022-10-04T04:41:22;5.07;;;4.10;;
11839;SDS011;5979;50.800;4.904;2022-10-04T04:43:49;5.10;;;3.70;;
11839;SDS011;5979;50.800;4.904;2022-10-04T04:46:15;3.85;;;3.40;;
11839;SDS011;5979;50.800;4.904;2022-10-04T04:48:45;5.63;;;4.47;;
11839;SDS011;5979;50.800;4.904;2022-10-04T04:51:22;4.05;;;3.70;;
11839;SDS011;5979;50.800;4.904;2022-10-04T04:53:49;3.78;;;3.47;;
11839;SDS011;5979;50.800;4.904;2022-10-04T04:56:18;4.15;;;3.75;;
11839;SDS011;5979;50.800;4.904;2022-10-04T04:58:47;4.32;;;3.92;;
11839;SDS011;5979;50.800;4.904;2022-10-04T05:06:43;5.88;;;3.50;;
11839;SDS011;5979;50.800;4.904;2022-10-04T05:11:47;3.83;;;3.55;;
11839;SDS011;5979;50.800;4.904;2022-10-04T05:14:15;3.67;;;3.28;;
11839;SDS011;5979;50.800;4.904;2022-10-04T05:16:43;4.50;;;3.85;;
11839;SDS011;5979;50.800;4.904;2022-10-04T05:19:21;3.83;;;3.50;;
11839;SDS011;5979;50.800;4.904;2022-10-04T05:21:55;4.65;;;3.63;;
11839;SDS011;5979;50.800;4.904;2022-10-04T05:24:28;4.22;;;3.65;;
11839;SDS011;5979;50.800;4.904;2022-10-04T05:26:56;4.90;;;4.05;;
11839;SDS011;5979;50.800;4.904;2022-10-04T05:29:28;5.85;;;3.92;;
11839;SDS011;5979;50.800;4.904;2022-10-04T05:34:35;5.07;;;3.90;;
11839;SDS011;5979;50.800;4.904;2022-10-04T05:40:22;5.15;;;3.63;;
11839;SDS011;5979;50.800;4.904;2022-10-04T05:42:49;3.97;;;3.65;;
11839;SDS011;5979;50.800;4.904;2022-10-04T05:45:20;5.15;;;3.70;;
11839;SDS011;5979;50.800;4.904;2022-10-04T05:47:54;4.05;;;3.65;;
11839;SDS011;5979;50.800;4.904;2022-10-04T05:50:27;6.47;;;3.78;;
11839;SDS011;5979;50.800;4.904;2022-10-04T06:12:12;6.95;;;4.38;;
11839;SDS011;5979;50.800;4.904;2022-10-04T06:15:01;14.88;;;4.10;;
11839;SDS011;5979;50.800;4.904;2022-10-04T06:20:44;7.03;;;4.50;;
11839;SDS011;5979;50.800;4.904;2022-10-04T06:23:41;7.10;;;3.60;;
11839;SDS011;5979;50.800;4.904;2022-10-04T06:26:13;6.40;;;4.28;;
11839;SDS011;5979;50.800;4.904;2022-10-04T06:29:29;6.90;;;4.90;;
11839;SDS011;5979;50.800;4.904;2022-10-04T06:34:26;7.43;;;4.30;;
11839;SDS011;5979;50.800;4.904;2022-10-04T06:40:04;6.18;;;4.30;;
11839;SDS011;5979;50.800;4.904;2022-10-04T06:43:02;4.85;;;4.22;;
11839;SDS011;5979;50.800;4.904;2022-10-04T06:48:45;6.05;;;4.30;;
11839;SDS011;5979;50.800;4.904;2022-10-04T06:56:50;3.92;;;3.63;;
11839;SDS011;5979;50.800;4.904;2022-10-04T07:02:34;4.10;;;3.70;;
11839;SDS011;5979;50.800;4.904;2022-10-04T07:08:00;5.80;;;3.90;;
11839;SDS011;5979;50.800;4.904;2022-10-04T07:10:45;9.73;;;4.50;;
11839;SDS011;5979;50.800;4.904;2022-10-04T07:19:21;4.40;;;3.60;;
11839;SDS011;5979;50.800;4.904;2022-10-04T07:21:53;6.10;;;4.47;;
11839;SDS011;5979;50.800;4.904;2022-10-04T07:24:25;5.70;;;4.43;;
11839;SDS011;5979;50.800;4.904;2022-10-04T07:26:57;5.30;;;4.47;;
11839;SDS011;5979;50.800;4.904;2022-10-04T07:29:27;6.95;;;4.70;;
11839;SDS011;5979;50.800;4.904;2022-10-04T07:32:05;6.38;;;4.43;;
11839;SDS011;5979;50.800;4.904;2022-10-04T07:37:19;7.20;;;4.55;;
11839;SDS011;5979;50.800;4.904;2022-10-04T07:39:51;5.63;;;4.32;;
11839;SDS011;5979;50.800;4.904;2022-10-04T07:45:24;5.35;;;4.22;;
11839;SDS011;5979;50.800;4.904;2022-10-04T07:48:29;4.85;;;4.38;;
11839;SDS011;5979;50.800;4.904;2022-10-04T07:50:54;5.20;;;4.53;;
11839;SDS011;5979;50.800;4.904;2022-10-04T07:53:44;4.32;;;3.92;;
11839;SDS011;5979;50.800;4.904;2022-10-04T08:07:25;4.38;;;4.03;;
11839;SDS011;5979;50.800;4.904;2022-10-04T08:10:02;4.40;;;4.00;;
11839;SDS011;5979;50.800;4.904;2022-10-04T08:12:52;5.55;;;4.13;;
11839;SDS011;5979;50.800;4.904;2022-10-04T08:15:38;4.35;;;3.97;;
11839;SDS011;5979;50.800;4.904;2022-10-04T08:21:00;4.63;;;4.22;;
11839;SDS011;5979;50.800;4.904;2022-10-04T08:35:20;4.05;;;3.78;;
11839;SDS011;5979;50.800;4.904;2022-10-04T08:38:21;3.85;;;3.60;;
11839;SDS011;5979;50.800;4.904;2022-10-04T08:46:38;4.90;;;4.50;;
11839;SDS011;5979;50.800;4.904;2022-10-04T08:49:35;5.43;;;4.43;;
11839;SDS011;5979;50.800;4.904;2022-10-04T08:52:32;6.60;;;5.13;;
11839;SDS011;5979;50.800;4.904;2022-10-04T08:58:15;4.55;;;4.13;;
11839;SDS011;5979;50.800;4.904;2022-10-04T09:01:00;4.97;;;4.43;;
11839;SDS011;5979;50.800;4.904;2022-10-04T09:17:34;6.10;;;4.80;;
11839;SDS011;5979;50.800;4.904;2022-10-04T09:20:22;4.88;;;4.35;;
11839;SDS011;5979;50.800;4.904;2022-10-04T09:23:17;4.65;;;4.07;;
11839;SDS011;5979;50.800;4.904;2022-10-04T09:29:06;5.32;;;4.80;;
11839;SDS011;5979;50.800;4.904;2022-10-04T09:48:06;5.30;;;4.65;;
11839;SDS011;5979;50.800;4.904;2022-10-04T09:59:42;6.53;;;4.68;;
11839;SDS011;5979;50.800;4.904;2022-10-04T10:04:49;6.85;;;5.50;;
11839;SDS011;5979;50.800;4.904;2022-10-04T10:07:44;7.25;;;5.32;;
11839;SDS011;5979;50.800;4.904;2022-10-04T10:10:36;9.15;;;4.80;;
11839;SDS011;5979;50.800;4.904;2022-10-04T10:13:41;6.97;;;5.28;;
11839;SDS011;5979;50.800;4.904;2022-10-04T10:27:48;6.25;;;4.82;;
11839;SDS011;5979;50.800;4.904;2022-10-04T10:48:15;6.82;;;5.95;;
11839;SDS011;5979;50.800;4.904;2022-10-04T11:02:20;7.88;;;6.15;;
11839;SDS011;5979;50.800;4.904;2022-10-04T11:08:19;9.52;;;6.13;;
11839;SDS011;5979;50.800;4.904;2022-10-04T11:36:04;8.48;;;4.93;;
11839;SDS011;5979;50.800;4.904;2022-10-04T11:41:44;5.78;;;4.93;;
11839;SDS011;5979;50.800;4.904;2022-10-04T11:50:05;5.60;;;4.68;;
11839;SDS011;5979;50.800;4.904;2022-10-04T11:53:09;9.20;;;4.80;;
11839;SDS011;5979;50.800;4.904;2022-10-04T12:18:09;6.75;;;5.47;;
11839;SDS011;5979;50.800;4.904;2022-10-04T12:27:00;8.40;;;4.93;;
11839;SDS011;5979;50.800;4.904;2022-10-04T12:32:33;5.72;;;4.47;;
11839;SDS011;5979;50.800;4.904;2022-10-04T12:38:09;5.00;;;4.30;;
11839;SDS011;5979;50.800;4.904;2022-10-04T12:40:51;5.60;;;4.10;;
11839;SDS011;5979;50.800;4.904;2022-10-04T12:46:10;5.88;;;4.50;;
11839;SDS011;5979;50.800;4.904;2022-10-04T12:59:34;6.10;;;4.30;;
11839;SDS011;5979;50.800;4.904;2022-10-04T13:05:20;6.97;;;3.88;;
11839;SDS011;5979;50.800;4.904;2022-10-04T13:42:15;5.55;;;4.05;;
11839;SDS011;5979;50.800;4.904;2022-10-04T13:44:59;7.70;;;3.80;;
11839;SDS011;5979;50.800;4.904;2022-10-04T13:50:25;4.35;;;3.55;;
11839;SDS011;5979;50.800;4.904;2022-10-04T13:59:49;4.40;;;4.00;;
11839;SDS011;5979;50.800;4.904;2022-10-04T14:08:02;6.13;;;4.00;;
11839;SDS011;5979;50.800;4.904;2022-10-04T14:19:05;8.75;;;4.68;;
11839;SDS011;5979;50.800;4.904;2022-10-04T14:59:27;4.07;;;3.58;;
11839;SDS011;5979;50.800;4.904;2022-10-04T15:04:36;5.28;;;3.45;;
11839;SDS011;5979;50.800;4.904;2022-10-04T15:07:28;3.70;;;3.45;;
11839;SDS011;5979;50.800;4.904;2022-10-04T15:10:11;4.75;;;3.35;;
11839;SDS011;5979;50.800;4.904;2022-10-04T15:15:32;4.22;;;3.80;;
11839;SDS011;5979;50.800;4.904;2022-10-04T15:18:35;4.13;;;3.90;;
11839;SDS011;5979;50.800;4.904;2022-10-04T15:21:08;5.32;;;3.70;;
11839;SDS011;5979;50.800;4.904;2022-10-04T15:23:49;3.97;;;3.67;;
11839;SDS011;5979;50.800;4.904;2022-10-04T15:37:17;4.93;;;3.83;;
11839;SDS011;5979;50.800;4.904;2022-10-04T15:40:14;4.15;;;3.72;;
11839;SDS011;5979;50.800;4.904;2022-10-04T15:48:27;4.28;;;3.88;;
11839;SDS011;5979;50.800;4.904;2022-10-04T15:57:50;3.45;;;3.15;;
11839;SDS011;5979;50.800;4.904;2022-10-04T16:02:34;4.50;;;3.65;;
11839;SDS011;5979;50.800;4.904;2022-10-04T16:10:51;6.15;;;3.95;;
11839;SDS011;5979;50.800;4.904;2022-10-04T16:18:49;4.18;;;3.50;;
11839;SDS011;5979;50.800;4.904;2022-10-04T16:34:47;4.82;;;3.60;;
11839;SDS011;5979;50.800;4.904;2022-10-04T16:40:19;3.35;;;2.88;;
11839;SDS011;5979;50.800;4.904;2022-10-04T16:42:54;3.97;;;3.38;;
11839;SDS011;5979;50.800;4.904;2022-10-04T16:47:55;3.90;;;3.58;;
11839;SDS011;5979;50.800;4.904;2022-10-04T16:56:13;4.40;;;3.97;;
11839;SDS011;5979;50.800;4.904;2022-10-04T17:01:20;4.55;;;3.97;;
11839;SDS011;5979;50.800;4.904;2022-10-04T17:06:57;3.65;;;3.35;;
11839;SDS011;5979;50.800;4.904;2022-10-04T17:09:45;4.35;;;3.95;;
11839;SDS011;5979;50.800;4.904;2022-10-04T17:26:02;4.18;;;3.88;;
11839;SDS011;5979;50.800;4.904;2022-10-04T17:34:08;4.43;;;4.03;;
11839;SDS011;5979;50.800;4.904;2022-10-04T17:36:54;4.13;;;3.72;;
11839;SDS011;5979;50.800;4.904;2022-10-04T17:39:32;4.22;;;3.90;;
11839;SDS011;5979;50.800;4.904;2022-10-04T17:42:01;3.60;;;3.30;;
11839;SDS011;5979;50.800;4.904;2022-10-04T17:44:56;3.80;;;3.50;;
11839;SDS011;5979;50.800;4.904;2022-10-04T17:54:10;4.30;;;3.90;;
11839;SDS011;5979;50.800;4.904;2022-10-04T17:59:40;4.32;;;3.88;;
11839;SDS011;5979;50.800;4.904;2022-10-04T18:02:23;3.70;;;3.50;;
11839;SDS011;5979;50.800;4.904;2022-10-04T18:04:59;4.18;;;3.78;;
11839;SDS011;5979;50.800;4.904;2022-10-04T18:07:33;6.22;;;4.40;;
11839;SDS011;5979;50.800;4.904;2022-10-04T18:10:20;4.70;;;4.30;;
11839;SDS011;5979;50.800;4.904;2022-10-04T18:13:00;5.25;;;4.78;;
11839;SDS011;5979;50.800;4.904;2022-10-04T18:18:40;8.32;;;6.72;;
11839;SDS011;5979;50.800;4.904;2022-10-04T18:23:39;7.65;;;5.82;;
11839;SDS011;5979;50.800;4.904;2022-10-04T18:26:36;6.85;;;6.15;;
11839;SDS011;5979;50.800;4.904;2022-10-04T18:29:17;8.10;;;5.97;;
11839;SDS011;5979;50.800;4.904;2022-10-04T18:32:49;6.13;;;5.63;;
11839;SDS011;5979;50.800;4.904;2022-10-04T18:34:56;6.50;;;5.90;;
11839;SDS011;5979;50.800;4.904;2022-10-04T18:37:33;6.47;;;5.88;;
11839;SDS011;5979;50.800;4.904;2022-10-04T18:40:13;6.60;;;6.03;;
11839;SDS011;5979;50.800;4.904;2022-10-04T18:42:49;8.20;;;6.25;;
11839;SDS011;5979;50.800;4.904;2022-10-04T18:47:58;7.57;;;6.97;;
11839;SDS011;5979;50.800;4.904;2022-10-04T18:56:11;6.40;;;5.90;;
11839;SDS011;5979;50.800;4.904;2022-10-04T19:12:59;6.35;;;5.85;;
11839;SDS011;5979;50.800;4.904;2022-10-04T19:23:59;7.97;;;6.25;;
11839;SDS011;5979;50.800;4.904;2022-10-04T19:26:46;7.18;;;6.47;;
11839;SDS011;5979;50.800;4.904;2022-10-04T19:40:08;7.55;;;6.93;;
11839;SDS011;5979;50.800;4.904;2022-10-04T19:46:04;7.70;;;6.93;;
11839;SDS011;5979;50.800;4.904;2022-10-04T19:48:50;7.65;;;6.95;;
11839;SDS011;5979;50.800;4.904;2022-10-04T19:51:25;9.27;;;8.07;;
11839;SDS011;5979;50.800;4.904;2022-10-04T19:54:20;8.10;;;7.10;;
11839;SDS011;5979;50.800;4.904;2022-10-04T19:56:56;8.35;;;7.55;;
11839;SDS011;5979;50.800;4.904;2022-10-04T19:59:41;7.65;;;6.95;;
11839;SDS011;5979;50.800;4.904;2022-10-04T20:02:12;8.30;;;7.13;;
11839;SDS011;5979;50.800;4.904;2022-10-04T20:04:38;8.55;;;7.75;;
11839;SDS011;5979;50.800;4.904;2022-10-04T20:07:17;8.85;;;8.05;;
11839;SDS011;5979;50.800;4.904;2022-10-04T20:13:03;8.13;;;7.32;;
11839;SDS011;5979;50.800;4.904;2022-10-04T20:17:59;9.07;;;7.60;;
11839;SDS011;5979;50.800;4.904;2022-10-04T20:23:05;8.35;;;7.65;;
11839;SDS011;5979;50.800;4.904;2022-10-04T20:28:10;7.65;;;6.90;;
11839;SDS011;5979;50.800;4.904;2022-10-04T20:31:04;7.53;;;6.93;;
11839;SDS011;5979;50.800;4.904;2022-10-04T20:38:51;8.20;;;7.45;;
11839;SDS011;5979;50.800;4.904;2022-10-04T20:43:58;14.27;;;8.63;;
11839;SDS011;5979;50.800;4.904;2022-10-04T20:46:35;9.85;;;8.80;;
11839;SDS011;5979;50.800;4.904;2022-10-04T20:49:03;9.27;;;8.40;;
11839;SDS011;5979;50.800;4.904;2022-10-04T20:51:37;8.88;;;7.95;;
11839;SDS011;5979;50.800;4.904;2022-10-04T20:54:03;9.93;;;8.93;;
11839;SDS011;5979;50.800;4.904;2022-10-04T20:56:31;9.70;;;8.70;;
11839;SDS011;5979;50.800;4.904;2022-10-04T20:58:58;11.40;;;8.68;;
11839;SDS011;5979;50.800;4.904;2022-10-04T21:01:29;9.45;;;8.45;;
11839;SDS011;5979;50.800;4.904;2022-10-04T21:04:22;10.30;;;8.98;;
11839;SDS011;5979;50.800;4.904;2022-10-04T21:06:59;9.27;;;8.15;;
11839;SDS011;5979;50.800;4.904;2022-10-04T21:09:32;9.32;;;8.43;;
11839;SDS011;5979;50.800;4.904;2022-10-04T21:12:00;9.38;;;8.45;;
11839;SDS011;5979;50.800;4.904;2022-10-04T21:19:55;10.32;;;9.18;;
11839;SDS011;5979;50.800;4.904;2022-10-04T21:27:29;10.90;;;9.80;;
11839;SDS011;5979;50.800;4.904;2022-10-04T21:29:58;10.77;;;8.60;;
11839;SDS011;5979;50.800;4.904;2022-10-04T21:32:25;11.00;;;9.73;;
11839;SDS011;5979;50.800;4.904;2022-10-04T21:34:51;10.10;;;9.15;;
11839;SDS011;5979;50.800;4.904;2022-10-04T21:37:17;10.55;;;9.43;;
11839;SDS011;5979;50.800;4.904;2022-10-04T21:39:43;10.00;;;9.10;;
11839;SDS011;5979;50.800;4.904;2022-10-04T21:42:09;9.82;;;8.82;;
11839;SDS011;5979;50.800;4.904;2022-10-04T21:44:35;9.50;;;8.38;;
11839;SDS011;5979;50.800;4.904;2022-10-04T21:47:01;9.05;;;8.13;;
11839;SDS011;5979;50.800;4.904;2022-10-04T21:49:26;10.05;;;9.05;;
11839;SDS011;5979;50.800;4.904;2022-10-04T21:51:52;8.57;;;7.78;;
11839;SDS011;5979;50.800;4.904;2022-10-04T21:54:18;8.77;;;7.80;;
11839;SDS011;5979;50.800;4.904;2022-10-04T21:56:44;9.40;;;8.50;;
11839;SDS011;5979;50.800;4.904;2022-10-04T21:59:09;9.23;;;8.32;;
11839;SDS011;5979;50.800;4.904;2022-10-04T22:01:35;12.18;;;9.15;;
11839;SDS011;5979;50.800;4.904;2022-10-04T22:04:01;9.23;;;8.30;;
11839;SDS011;5979;50.800;4.904;2022-10-04T22:06:26;9.85;;;8.85;;
11839;SDS011;5979;50.800;4.904;2022-10-04T22:08:52;10.48;;;8.95;;
11839;SDS011;5979;50.800;4.904;2022-10-04T22:11:18;9.85;;;8.85;;
11839;SDS011;5979;50.800;4.904;2022-10-04T22:13:43;8.52;;;7.85;;
11839;SDS011;5979;50.800;4.904;2022-10-04T22:16:10;11.10;;;8.48;;
11839;SDS011;5979;50.800;4.904;2022-10-04T22:18:36;9.30;;;8.40;;
11839;SDS011;5979;50.800;4.904;2022-10-04T22:21:02;11.10;;;8.77;;
11839;SDS011;5979;50.800;4.904;2022-10-04T22:23:38;10.30;;;9.15;;
11839;SDS011;5979;50.800;4.904;2022-10-04T22:26:13;9.68;;;8.77;;
11839;SDS011;5979;50.800;4.904;2022-10-04T22:28:47;8.93;;;8.15;;
11839;SDS011;5979;50.800;4.904;2022-10-04T22:31:16;11.55;;;8.63;;
11839;SDS011;5979;50.800;4.904;2022-10-04T22:33:44;9.48;;;8.57;;
11839;SDS011;5979;50.800;4.904;2022-10-04T22:41:28;8.25;;;7.45;;
11839;SDS011;5979;50.800;4.904;2022-10-04T22:43:58;9.25;;;8.32;;
11839;SDS011;5979;50.800;4.904;2022-10-04T22:46:35;9.40;;;8.38;;
11839;SDS011;5979;50.800;4.904;2022-10-04T22:49:07;10.20;;;8.18;;
11839;SDS011;5979;50.800;4.904;2022-10-04T22:51:38;9.10;;;8.30;;
11839;SDS011;5979;50.800;4.904;2022-10-04T22:54:10;10.43;;;9.32;;
11839;SDS011;5979;50.800;4.904;2022-10-04T22:56:47;9.70;;;8.73;;
11839;SDS011;5979;50.800;4.904;2022-10-04T22:59:13;9.48;;;8.57;;
11839;SDS011;5979;50.800;4.904;2022-10-04T23:01:41;9.45;;;8.55;;
11839;SDS011;5979;50.800;4.904;2022-10-04T23:04:21;9.52;;;8.27;;
11839;SDS011;5979;50.800;4.904;2022-10-04T23:06:48;10.77;;;9.20;;
11839;SDS011;5979;50.800;4.904;2022-10-04T23:09:15;9.10;;;8.30;;
11839;SDS011;5979;50.800;4.904;2022-10-04T23:11:41;8.43;;;7.57;;
11839;SDS011;5979;50.800;4.904;2022-10-04T23:14:08;9.50;;;8.63;;
11839;SDS011;5979;50.800;4.904;2022-10-04T23:16:34;11.75;;;9.23;;
11839;SDS011;5979;50.800;4.904;2022-10-04T23:19:07;9.68;;;8.68;;
11839;SDS011;5979;50.800;4.904;2022-10-04T23:21:36;9.40;;;8.35;;
11839;SDS011;5979;50.800;4.904;2022-10-04T23:24:21;9.07;;;8.25;;
11839;SDS011;5979;50.800;4.904;2022-10-04T23:26:53;10.13;;;8.93;;
11839;SDS011;5979;50.800;4.904;2022-10-04T23:29:23;9.02;;;8.23;;
11839;SDS011;5979;50.800;4.904;2022-10-04T23:31:51;9.15;;;8.35;;
11839;SDS011;5979;50.800;4.904;2022-10-04T23:34:19;10.23;;;9.23;;
11839;SDS011;5979;50.800;4.904;2022-10-04T23:36:57;10.02;;;9.00;;
11839;SDS011;5979;50.800;4.904;2022-10-04T23:39:27;10.00;;;9.00;;
11839;SDS011;5979;50.800;4.904;2022-10-04T23:41:56;9.38;;;8.40;;
11839;SDS011;5979;50.800;4.904;2022-10-04T23:44:23;10.50;;;8.63;;
11839;SDS011;5979;50.800;4.904;2022-10-04T23:46:53;9.43;;;8.48;;
11839;SDS011;5979;50.800;4.904;2022-10-04T23:49:19;9.38;;;8.48;;
11839;SDS011;5979;50.800;4.904;2022-10-04T23:51:46;9.80;;;8.80;;
11839;SDS011;5979;50.800;4.904;2022-10-04T23:54:17;9.45;;;8.38;;
11839;SDS011;5979;50.800;4.904;2022-10-04T23:56:43;8.90;;;8.10;;
11839;SDS011;5979;50.800;4.904;2022-10-04T23:59:12;8.80;;;7.70;;
